Time;durP1;ratioP1;P1;durP2;ratioP2;P2;SDS_P1;SDS_P2;PMS_P1;PMS_P2;Temp;Humidity;BMP_temperature;BMP_pressure;BME280_temperature;BME280_humidity;BME280_pressure;Samples;Min_cycle;Max_cycle;Signal;HPM_P1;HPM_P2
2022/08/10 00:02:20;;;;;;;2.53;1.98;;;17.50;91.50;;;;;;5026160;28;20610;-78
2022/08/10 00:04:45;;;;;;;1.98;1.88;;;17.50;92.30;;;;;;5029875;28;20209;-78
2022/08/10 00:07:11;;;;;;;2.47;2.00;;;17.40;93.10;;;;;;5022237;28;20177;-78
2022/08/10 00:09:37;;;;;;;2.00;1.90;;;17.30;93.60;;;;;;5022846;28;20187;-78
2022/08/10 00:12:03;;;;;;;2.40;2.20;;;17.30;94.40;;;;;;5027119;28;20284;-78
2022/08/10 00:14:28;;;;;;;2.53;2.33;;;17.20;94.90;;;;;;5026292;28;20235;-78
2022/08/10 00:16:54;;;;;;;2.33;2.13;;;17.20;94.90;;;;;;5026549;28;20739;-78
2022/08/10 00:19:19;;;;;;;1.92;1.83;;;17.20;94.50;;;;;;5025275;28;20204;-78
2022/08/10 00:21:46;;;;;;;3.35;2.15;;;17.30;94.50;;;;;;5025634;28;20176;-78
2022/08/10 00:24:12;;;;;;;1.90;1.80;;;17.30;94.40;;;;;;5030072;28;20196;-78
2022/08/10 00:26:37;;;;;;;3.53;2.20;;;17.30;94.60;;;;;;5023067;28;20238;-78
2022/08/10 00:29:03;;;;;;;2.28;2.03;;;17.20;94.50;;;;;;5026941;28;20283;-78
2022/08/10 00:31:28;;;;;;;2.70;2.28;;;17.30;94.40;;;;;;5038137;28;20180;-78
2022/08/10 00:33:54;;;;;;;2.22;1.98;;;17.30;94.20;;;;;;5032478;28;20952;-78
2022/08/10 00:36:20;;;;;;;1.85;1.75;;;17.40;94.00;;;;;;5025806;28;20198;-78
2022/08/10 00:38:45;;;;;;;2.35;2.15;;;17.30;94.30;;;;;;5030595;28;20241;-78
2022/08/10 00:41:11;;;;;;;1.80;1.70;;;17.10;95.00;;;;;;5027742;28;20201;-78
2022/08/10 00:43:36;;;;;;;1.88;1.77;;;17.00;95.60;;;;;;5037439;28;20191;-78
2022/08/10 00:46:02;;;;;;;1.83;1.73;;;16.90;95.90;;;;;;5027498;28;20197;-78
2022/08/10 00:48:29;;;;;;;1.90;1.80;;;16.90;96.30;;;;;;5031484;28;20173;-78
2022/08/10 00:50:56;;;;;;;4.70;2.00;;;16.80;96.90;;;;;;5035345;28;20216;-78
2022/08/10 00:53:22;;;;;;;2.15;2.00;;;16.70;96.90;;;;;;5030056;28;20648;-78
2022/08/10 00:55:48;;;;;;;1.85;1.77;;;16.70;96.80;;;;;;5032639;28;20203;-78
2022/08/10 00:58:14;;;;;;;1.98;1.85;;;16.60;96.50;;;;;;5028918;28;20193;-78
2022/08/10 01:00:41;;;;;;;2.20;2.00;;;16.60;97.10;;;;;;5038809;28;20295;-79
2022/08/10 01:03:07;;;;;;;2.00;1.80;;;16.60;97.00;;;;;;5028074;28;20173;-78
2022/08/10 01:05:38;;;;;;;4.32;1.92;;;16.60;96.90;;;;;;5031357;28;20278;-78
2022/08/10 01:08:12;;;;;;;2.42;2.33;;;16.60;97.10;;;;;;5026068;28;20188;-78
2022/08/10 01:10:59;;;;;;;2.47;2.22;;;16.70;96.70;;;;;;5029942;28;20199;-77
2022/08/10 01:13:40;;;;;;;1.70;1.60;;;16.80;96.40;;;;;;5028288;28;20394;-78
2022/08/10 01:16:27;;;;;;;2.00;1.90;;;16.80;96.30;;;;;;5029807;28;20608;-78
2022/08/10 01:19:18;;;;;;;2.33;2.13;;;16.70;96.60;;;;;;5030889;28;20196;-78
2022/08/10 01:22:25;;;;;;;2.08;1.98;;;16.80;96.60;;;;;;5026622;28;20208;-78
2022/08/10 01:25:02;;;;;;;2.00;1.80;;;16.80;96.60;;;;;;5016985;28;20223;-78
2022/08/10 01:27:42;;;;;;;1.92;1.83;;;16.70;96.90;;;;;;5026237;28;20180;-77
2022/08/10 01:30:13;;;;;;;2.10;1.92;;;16.60;97.80;;;;;;5022397;28;20651;-77
2022/08/10 01:32:47;;;;;;;1.95;1.85;;;16.50;98.10;;;;;;5032606;28;20182;-77
2022/08/10 01:35:29;;;;;;;2.00;1.90;;;16.40;98.70;;;;;;5034692;28;20215;-79
2022/08/10 01:38:03;;;;;;;2.00;1.90;;;16.30;99.40;;;;;;5023885;28;20177;-78
2022/08/10 01:40:32;;;;;;;1.83;1.73;;;16.20;99.40;;;;;;5038564;28;20201;-78
2022/08/10 01:43:03;;;;;;;1.90;1.73;;;16.10;99.90;;;;;;5038359;28;20234;-78
2022/08/10 01:45:29;;;;;;;2.00;1.90;;;16.10;99.90;;;;;;5038232;28;20216;-78
2022/08/10 01:50:54;;;;;;;2.10;2.00;;;16.00;99.90;;;;;;5032563;28;20589;-78
2022/08/10 01:53:27;;;;;;;2.60;2.38;;;16.00;99.90;;;;;;5029556;28;20209;-77
2022/08/10 01:55:54;;;;;;;1.92;1.83;;;15.90;99.90;;;;;;5028087;28;20204;-78
2022/08/10 01:58:24;;;;;;;2.80;1.88;;;15.90;99.90;;;;;;5029252;28;20208;-77
2022/08/10 02:00:51;;;;;;;2.30;2.20;;;15.90;99.90;;;;;;5021813;28;20197;-77
2022/08/10 02:03:19;;;;;;;2.10;2.00;;;15.80;99.90;;;;;;5023514;28;20686;-78
2022/08/10 02:05:50;;;;;;;2.50;2.30;;;15.80;99.90;;;;;;5020169;28;20215;-77
2022/08/10 02:08:19;;;;;;;2.20;2.00;;;15.80;99.90;;;;;;5028262;28;20234;-77
2022/08/10 02:10:47;;;;;;;1.98;1.88;;;15.80;99.90;;;;;;5031976;28;20176;-77
2022/08/10 02:13:15;;;;;;;2.60;2.25;;;15.70;99.90;;;;;;5026955;28;20259;-76
2022/08/10 02:15:43;;;;;;;2.22;2.13;;;15.80;99.90;;;;;;5031691;28;20207;-77
2022/08/10 02:18:11;;;;;;;2.25;2.10;;;15.80;99.90;;;;;;5030910;28;20192;-77
2022/08/10 02:20:43;;;;;;;1.95;1.90;;;15.80;99.90;;;;;;5028611;28;20258;-80
2022/08/10 02:23:23;;;;;;;2.47;2.28;;;15.80;99.90;;;;;;5025825;28;20179;-77
2022/08/10 02:25:50;;;;;;;2.35;2.20;;;15.70;99.90;;;;;;5025114;28;20243;-77
2022/08/10 02:28:18;;;;;;;2.30;2.20;;;15.70;99.90;;;;;;5029953;28;20458;-77
2022/08/10 02:30:46;;;;;;;2.38;2.10;;;15.80;99.90;;;;;;5029462;28;20183;-77
2022/08/10 02:33:14;;;;;;;2.80;2.60;;;15.80;99.90;;;;;;5030985;28;20204;-77
2022/08/10 02:35:41;;;;;;;3.35;2.00;;;15.80;99.90;;;;;;5025566;28;20208;-78
2022/08/10 02:38:08;;;;;;;2.50;2.30;;;15.80;99.90;;;;;;5023782;28;20196;-78
2022/08/10 02:40:41;;;;;;;2.50;2.30;;;15.90;99.90;;;;;;5034263;28;20230;-77
2022/08/10 02:43:17;;;;;;;2.53;2.35;;;15.80;99.90;;;;;;5016527;28;20188;-77
2022/08/10 02:45:48;;;;;;;2.40;2.20;;;15.70;99.90;;;;;;5025236;28;20188;-77
2022/08/10 02:48:24;;;;;;;2.70;2.50;;;15.70;99.90;;;;;;5026027;28;20177;-77
2022/08/10 02:51:04;;;;;;;4.18;2.20;;;15.70;99.90;;;;;;5019015;28;20686;-77
2022/08/10 02:53:46;;;;;;;3.15;2.50;;;15.70;99.90;;;;;;5026162;28;20995;-77
2022/08/10 02:56:33;;;;;;;2.90;2.25;;;15.70;99.90;;;;;;5031251;28;20210;-77
2022/08/10 02:59:05;;;;;;;4.35;2.70;;;15.60;99.90;;;;;;5027892;28;20207;-77
2022/08/10 03:01:35;;;;;;;2.22;2.17;;;15.50;99.90;;;;;;5030844;28;20208;-77
2022/08/10 03:04:05;;;;;;;2.83;2.58;;;15.40;99.90;;;;;;5018533;28;20186;-77
2022/08/10 03:06:38;;;;;;;2.33;2.22;;;15.30;99.90;;;;;;5018899;28;20201;-77
2022/08/10 03:09:08;;;;;;;3.10;2.72;;;15.20;99.90;;;;;;5026587;28;20181;-77
2022/08/10 03:11:36;;;;;;;2.53;2.40;;;15.10;99.90;;;;;;5020137;28;20183;-78
2022/08/10 03:14:05;;;;;;;2.40;2.30;;;15.10;99.90;;;;;;5029597;28;20196;-77
2022/08/10 03:16:32;;;;;;;2.80;2.58;;;15.20;99.90;;;;;;5029803;28;20202;-77
2022/08/10 03:19:01;;;;;;;2.67;2.55;;;15.20;99.90;;;;;;5025274;28;20520;-77
2022/08/10 03:21:29;;;;;;;2.55;2.35;;;15.20;99.90;;;;;;5032341;28;20181;-77
2022/08/10 03:23:57;;;;;;;2.58;2.38;;;15.10;99.90;;;;;;5031527;28;20172;-77
2022/08/10 03:26:23;;;;;;;2.47;2.28;;;15.10;99.90;;;;;;5035951;28;20188;-77
2022/08/10 03:28:51;;;;;;;3.33;2.47;;;15.10;99.90;;;;;;5032564;28;20177;-78
2022/08/10 03:31:17;;;;;;;2.97;2.65;;;15.10;99.90;;;;;;5041372;28;20256;-78
2022/08/10 03:33:44;;;;;;;2.65;2.50;;;15.10;99.90;;;;;;5043415;28;20189;-78
2022/08/10 03:36:11;;;;;;;2.33;2.22;;;15.10;99.90;;;;;;5033087;28;20198;-80
2022/08/10 03:38:39;;;;;;;2.50;2.30;;;15.00;99.90;;;;;;5034897;28;20266;-78
2022/08/10 03:41:08;;;;;;;2.60;2.47;;;15.00;99.90;;;;;;5034936;28;20199;-78
2022/08/10 03:43:35;;;;;;;2.67;2.50;;;15.00;99.90;;;;;;5038159;28;20173;-77
2022/08/10 03:46:05;;;;;;;2.85;2.55;;;15.10;99.90;;;;;;5036382;28;20189;-78
2022/08/10 03:48:32;;;;;;;2.85;2.50;;;15.10;99.90;;;;;;5034355;28;20183;-78
2022/08/10 03:51:00;;;;;;;2.45;2.28;;;15.00;99.90;;;;;;5038889;28;20184;-77
2022/08/10 03:53:26;;;;;;;2.75;2.60;;;15.00;99.90;;;;;;5035756;28;20177;-82
2022/08/10 03:55:52;;;;;;;3.30;2.88;;;14.90;99.90;;;;;;5038652;28;20207;-78
2022/08/10 03:58:18;;;;;;;3.22;2.70;;;14.90;99.90;;;;;;5037731;28;20235;-78
2022/08/10 04:00:45;;;;;;;3.60;2.58;;;14.80;99.90;;;;;;5030078;28;20208;-77
2022/08/10 04:03:11;;;;;;;2.47;2.30;;;14.80;99.90;;;;;;5032965;28;20186;-78
2022/08/10 04:05:37;;;;;;;2.47;2.38;;;14.90;99.90;;;;;;5027399;28;20193;-77
2022/08/10 04:08:04;;;;;;;2.78;2.58;;;14.90;99.90;;;;;;5028044;28;20259;-76
2022/08/10 04:10:30;;;;;;;2.97;2.50;;;14.90;99.90;;;;;;5035711;28;20191;-78
2022/08/10 04:12:55;;;;;;;2.47;2.38;;;14.90;99.90;;;;;;5036568;28;20283;-78
2022/08/10 04:15:23;;;;;;;3.22;2.92;;;14.80;99.90;;;;;;5041335;28;20565;-81
2022/08/10 04:17:49;;;;;;;2.97;2.67;;;14.80;99.90;;;;;;5039966;28;20169;-78
2022/08/10 04:20:31;;;;;;;2.88;2.67;;;14.80;99.90;;;;;;5042117;28;20232;-78
2022/08/10 04:23:02;;;;;;;3.13;2.88;;;14.70;99.90;;;;;;5028680;28;20536;-76
2022/08/10 04:25:29;;;;;;;3.47;2.60;;;14.80;99.90;;;;;;5033523;28;20251;-77
2022/08/10 04:27:56;;;;;;;3.33;3.03;;;14.70;99.90;;;;;;5034182;28;20173;-76
2022/08/10 04:30:22;;;;;;;2.67;2.55;;;14.70;99.90;;;;;;5026286;28;20181;-76
2022/08/10 04:32:52;;;;;;;2.75;2.55;;;14.80;99.90;;;;;;5026006;28;20191;-76
2022/08/10 04:35:19;;;;;;;2.55;2.45;;;14.80;99.90;;;;;;5021847;28;20679;-76
2022/08/10 04:37:47;;;;;;;5.45;2.92;;;14.80;99.90;;;;;;5027612;28;20571;-77
2022/08/10 04:40:14;;;;;;;2.78;2.65;;;14.80;99.90;;;;;;5031495;28;20236;-78
2022/08/10 04:42:40;;;;;;;3.63;3.33;;;14.80;99.90;;;;;;5033820;28;20667;-78
2022/08/10 04:45:10;;;;;;;3.22;2.92;;;14.90;99.90;;;;;;5026056;28;20207;-78
2022/08/10 04:47:39;;;;;;;3.47;2.65;;;15.00;99.90;;;;;;5019071;28;20212;-77
2022/08/10 04:50:05;;;;;;;3.30;2.95;;;15.10;99.90;;;;;;5022624;28;20188;-77
2022/08/10 04:52:31;;;;;;;3.38;2.83;;;15.10;99.90;;;;;;5028174;28;20651;-77
2022/08/10 04:54:57;;;;;;;2.80;2.60;;;15.20;99.90;;;;;;5025083;28;20200;-77
2022/08/10 04:57:22;;;;;;;2.95;2.78;;;15.20;99.90;;;;;;5022637;28;20181;-77
2022/08/10 04:59:48;;;;;;;4.95;2.60;;;15.20;99.90;;;;;;5017169;28;20220;-77
2022/08/10 05:02:14;;;;;;;5.95;3.33;;;15.20;99.90;;;;;;5021050;28;20184;-78
2022/08/10 05:04:40;;;;;;;7.13;2.60;;;15.30;99.90;;;;;;5016970;28;20184;-78
2022/08/10 05:07:11;;;;;;;3.08;2.70;;;15.40;99.90;;;;;;5027814;28;20200;-77
2022/08/10 05:09:40;;;;;;;5.13;3.47;;;15.40;99.90;;;;;;5031276;28;20184;-78
2022/08/10 05:12:07;;;;;;;3.50;2.90;;;15.60;99.90;;;;;;5029194;28;20193;-80
2022/08/10 05:14:33;;;;;;;5.57;3.00;;;15.60;99.90;;;;;;5036046;28;20216;-78
2022/08/10 05:16:59;;;;;;;9.68;3.38;;;15.80;99.90;;;;;;5019672;28;20217;-79
2022/08/10 05:19:25;;;;;;;3.13;2.85;;;15.90;99.90;;;;;;5021853;28;20232;-78
2022/08/10 05:21:51;;;;;;;4.20;3.22;;;16.00;99.90;;;;;;5018439;28;20186;-80
2022/08/10 05:24:16;;;;;;;5.72;2.80;;;16.10;99.90;;;;;;5035091;28;20261;-79
2022/08/10 05:26:42;;;;;;;6.25;2.92;;;16.20;99.90;;;;;;5026759;28;20196;-78
2022/08/10 05:29:08;;;;;;;2.85;2.65;;;16.30;99.90;;;;;;5025093;28;20192;-79
2022/08/10 05:31:34;;;;;;;2.58;2.38;;;16.40;99.90;;;;;;5037401;28;20186;-79
2022/08/10 05:34:00;;;;;;;2.22;2.13;;;16.50;99.90;;;;;;5039383;28;20173;-78
2022/08/10 05:36:26;;;;;;;4.53;2.53;;;16.50;99.90;;;;;;5029559;28;20197;-78
2022/08/10 05:38:52;;;;;;;2.90;2.60;;;16.60;99.90;;;;;;5025236;28;20266;-78
2022/08/10 05:41:19;;;;;;;4.80;2.50;;;16.70;99.90;;;;;;5020683;28;20247;-77
2022/08/10 05:43:45;;;;;;;5.05;2.42;;;16.80;99.90;;;;;;5021277;28;20196;-77
2022/08/10 05:46:11;;;;;;;4.90;2.65;;;16.80;99.90;;;;;;5019089;28;20228;-77
2022/08/10 05:48:38;;;;;;;2.75;2.40;;;16.90;99.90;;;;;;5021986;28;20740;-77
2022/08/10 05:51:04;;;;;;;2.80;2.60;;;17.00;99.90;;;;;;5023668;28;20181;-78
2022/08/10 05:53:32;;;;;;;2.50;2.30;;;17.10;99.90;;;;;;5026785;28;20730;-79
2022/08/10 05:55:58;;;;;;;3.17;2.35;;;17.20;99.90;;;;;;5030433;28;20243;-79
2022/08/10 05:58:24;;;;;;;3.08;2.50;;;17.30;99.90;;;;;;5032614;28;20185;-79
2022/08/10 06:00:54;;;;;;;4.90;3.35;;;17.40;99.90;;;;;;5030691;28;20265;-78
2022/08/10 06:03:26;;;;;;;3.00;2.80;;;17.50;99.90;;;;;;5032441;28;20185;-78
2022/08/10 06:05:55;;;;;;;3.38;2.25;;;17.70;99.90;;;;;;5043425;28;20212;-79
2022/08/10 06:08:27;;;;;;;7.05;2.13;;;17.70;99.90;;;;;;5040995;28;20191;-79
2022/08/10 06:10:56;;;;;;;2.78;2.58;;;17.80;99.90;;;;;;5043376;28;20827;-80
2022/08/10 06:16:12;;;;;;;4.15;2.60;;;17.90;99.90;;;;;;5030399;28;20295;-79
2022/08/10 06:18:38;;;;;;;3.30;2.10;;;17.90;99.90;;;;;;5036144;28;20196;-79
2022/08/10 06:21:05;;;;;;;3.08;2.65;;;18.00;99.90;;;;;;5029821;28;20696;-79
2022/08/10 06:23:31;;;;;;;2.40;2.30;;;18.10;99.90;;;;;;5039770;28;20189;-78
2022/08/10 06:25:58;;;;;;;4.85;2.72;;;18.20;99.90;;;;;;5022492;28;20197;-78
2022/08/10 06:28:27;;;;;;;3.25;2.33;;;18.30;99.50;;;;;;5023172;28;20185;-79
2022/08/10 06:30:53;;;;;;;2.78;2.58;;;18.50;99.10;;;;;;5042095;28;20182;-79
2022/08/10 06:33:22;;;;;;;2.40;2.20;;;18.70;98.50;;;;;;5025056;28;20172;-79
2022/08/10 06:35:52;;;;;;;2.67;2.47;;;18.90;98.30;;;;;;5037151;28;20206;-79
2022/08/10 06:38:19;;;;;;;3.28;2.50;;;19.00;97.30;;;;;;5034467;28;20209;-79
2022/08/10 06:40:47;;;;;;;2.60;2.40;;;19.30;96.50;;;;;;5025178;28;20204;-78
2022/08/10 06:43:16;;;;;;;2.97;2.05;;;19.40;96.00;;;;;;5030306;28;20205;-78
2022/08/10 06:45:46;;;;;;;2.63;2.30;;;19.60;95.40;;;;;;5022291;28;20189;-78
2022/08/10 06:48:52;;;;;;;3.70;2.20;;;19.70;95.20;;;;;;5021625;28;20219;-78
2022/08/10 06:51:29;;;;;;;5.75;2.20;;;19.80;94.20;;;;;;5020226;28;20189;-78
2022/08/10 06:53:58;;;;;;;4.28;2.20;;;20.00;94.10;;;;;;5024257;28;20200;-78
2022/08/10 06:56:27;;;;;;;4.78;2.60;;;20.10;93.90;;;;;;5034973;28;20279;-78
2022/08/10 06:59:06;;;;;;;2.88;2.10;;;20.20;93.30;;;;;;5029063;28;20711;-78
2022/08/10 07:01:35;;;;;;;4.50;2.25;;;20.30;93.30;;;;;;5027904;28;20208;-79
2022/08/10 07:04:11;;;;;;;2.25;2.08;;;20.50;92.80;;;;;;5026091;28;20177;-79
2022/08/10 07:06:43;;;;;;;1.95;1.80;;;20.60;92.00;;;;;;5028633;28;20200;-79
2022/08/10 07:09:17;;;;;;;3.03;2.20;;;20.70;91.90;;;;;;5035683;28;20188;-79
2022/08/10 07:11:44;;;;;;;2.58;2.38;;;20.80;90.70;;;;;;5029852;28;20181;-79
2022/08/10 07:14:12;;;;;;;4.03;1.98;;;20.90;90.60;;;;;;5033778;28;20176;-81
2022/08/10 07:16:41;;;;;;;7.97;2.13;;;21.00;90.70;;;;;;5034053;28;20201;-78
2022/08/10 07:19:12;;;;;;;2.42;1.90;;;21.10;90.20;;;;;;5032312;28;20686;-79
2022/08/10 07:21:42;;;;;;;3.13;2.17;;;21.30;90.20;;;;;;5032947;28;20296;-79
2022/08/10 07:24:11;;;;;;;3.78;1.90;;;21.40;89.10;;;;;;5030686;28;20182;-79
2022/08/10 07:26:42;;;;;;;4.03;2.42;;;21.50;86.00;;;;;;5029135;28;20207;-79
2022/08/10 07:29:08;;;;;;;2.47;1.95;;;21.60;84.40;;;;;;5024012;28;20658;-79
2022/08/10 07:31:36;;;;;;;4.05;1.73;;;21.80;84.30;;;;;;5033775;28;20211;-75
2022/08/10 07:34:05;;;;;;;2.67;1.73;;;21.90;84.00;;;;;;5027774;28;20177;-74
2022/08/10 07:36:32;;;;;;;3.70;1.83;;;22.10;83.50;;;;;;5023633;28;20200;-75
2022/08/10 07:38:59;;;;;;;3.05;1.42;;;22.20;82.90;;;;;;5022513;28;20180;-75
2022/08/10 07:41:29;;;;;;;3.20;2.00;;;22.30;81.20;;;;;;5029368;28;20215;-75
2022/08/10 07:43:57;;;;;;;3.03;1.95;;;22.40;80.90;;;;;;5026069;28;20647;-75
2022/08/10 07:46:25;;;;;;;3.63;1.88;;;22.50;80.10;;;;;;5028022;28;20201;-74
2022/08/10 07:49:07;;;;;;;5.57;1.80;;;22.60;80.60;;;;;;5022861;28;20271;-75
2022/08/10 07:51:33;;;;;;;2.15;1.60;;;22.70;79.80;;;;;;5024278;28;20240;-75
2022/08/10 07:54:01;;;;;;;3.20;1.70;;;22.80;81.50;;;;;;5026050;28;20181;-74
2022/08/10 07:56:30;;;;;;;4.18;1.60;;;23.00;80.10;;;;;;5026173;28;20212;-74
2022/08/10 07:59:24;;;;;;;4.32;1.58;;;23.10;79.80;;;;;;5030563;28;20555;-75
2022/08/10 08:01:53;;;;;;;1.80;1.48;;;23.20;78.80;;;;;;5022269;28;20188;-75
2022/08/10 08:04:22;;;;;;;2.92;1.60;;;23.20;77.80;;;;;;5023017;28;20189;-75
2022/08/10 08:06:51;;;;;;;1.63;1.40;;;23.30;79.10;;;;;;5021340;28;20208;-75
2022/08/10 08:09:20;;;;;;;4.15;1.70;;;23.40;76.80;;;;;;5031484;28;20184;-74
2022/08/10 08:11:48;;;;;;;1.48;1.38;;;23.50;76.20;;;;;;5031956;28;20191;-75
2022/08/10 08:14:15;;;;;;;3.22;1.55;;;23.60;75.50;;;;;;5034582;28;20176;-76
2022/08/10 08:16:45;;;;;;;1.40;1.40;;;23.70;76.00;;;;;;5027623;28;20623;-78
2022/08/10 08:19:11;;;;;;;1.85;1.52;;;23.80;74.20;;;;;;5026118;28;20181;-76
2022/08/10 08:21:38;;;;;;;3.53;1.98;;;23.90;72.90;;;;;;5021195;28;20633;-76
2022/08/10 08:24:05;;;;;;;1.50;1.50;;;23.90;72.70;;;;;;5028107;28;20197;-75
2022/08/10 08:26:32;;;;;;;2.35;1.58;;;24.00;72.00;;;;;;5030783;28;20196;-76
2022/08/10 08:28:58;;;;;;;2.97;1.77;;;24.10;72.20;;;;;;5019228;28;20263;-76
2022/08/10 08:31:25;;;;;;;2.35;1.25;;;24.10;73.30;;;;;;5020691;28;20196;-72
2022/08/10 08:33:53;;;;;;;2.97;1.67;;;24.20;71.70;;;;;;5024390;28;20181;-74
2022/08/10 08:36:20;;;;;;;1.50;1.40;;;24.30;69.90;;;;;;5026618;28;20228;-72
2022/08/10 08:38:47;;;;;;;4.93;1.42;;;24.40;70.20;;;;;;5029284;28;20181;-74
2022/08/10 08:41:27;;;;;;;4.70;1.63;;;24.50;68.90;;;;;;5021620;28;20571;-74
2022/08/10 08:44:30;;;;;;;3.95;1.40;;;24.50;68.60;;;;;;5024457;28;20212;-73
2022/08/10 08:47:09;;;;;;;1.27;1.27;;;24.60;67.70;;;;;;5020728;28;20222;-74
2022/08/10 08:49:49;;;;;;;2.00;1.50;;;24.60;67.60;;;;;;5020914;28;20184;-74
2022/08/10 08:52:47;;;;;;;2.47;1.63;;;24.60;67.30;;;;;;5031255;28;20181;-74
2022/08/10 08:55:27;;;;;;;2.28;1.50;;;24.70;68.50;;;;;;5037135;28;20671;-72
2022/08/10 08:58:17;;;;;;;2.40;1.73;;;24.70;66.50;;;;;;5024529;28;20680;-73
2022/08/10 09:01:05;;;;;;;1.77;1.63;;;24.90;66.90;;;;;;5031881;28;20260;-74
2022/08/10 09:03:41;;;;;;;2.67;1.70;;;25.10;66.00;;;;;;5043755;28;20177;-72
2022/08/10 09:06:26;;;;;;;2.08;1.50;;;25.20;66.20;;;;;;5042084;28;20212;-73
2022/08/10 09:08:54;;;;;;;1.38;1.33;;;25.40;64.00;;;;;;5045055;28;20175;-73
2022/08/10 09:11:23;;;;;;;2.03;1.75;;;25.50;63.00;;;;;;5043488;28;20185;-75
2022/08/10 09:14:00;;;;;;;1.85;1.35;;;25.60;63.60;;;;;;5056141;28;20192;-74
2022/08/10 09:16:41;;;;;;;2.53;1.67;;;25.80;61.20;;;;;;5040515;28;20200;-71
2022/08/10 09:19:35;;;;;;;1.75;1.65;;;25.70;62.70;;;;;;5027886;28;20234;-71
2022/08/10 09:22:23;;;;;;;3.20;1.65;;;25.70;62.30;;;;;;5027765;28;20185;-71
2022/08/10 09:24:57;;;;;;;4.38;1.67;;;25.90;62.70;;;;;;5027893;28;20220;-73
2022/08/10 09:27:35;;;;;;;1.70;1.60;;;26.80;61.70;;;;;;5029137;28;20714;-72
2022/08/10 09:30:05;;;;;;;2.90;1.40;;;28.50;57.00;;;;;;5026396;28;20189;-72
2022/08/10 09:32:38;;;;;;;2.38;1.50;;;31.00;52.30;;;;;;5022995;28;20177;-73
2022/08/10 09:35:13;;;;;;;1.95;1.33;;;33.10;49.70;;;;;;5020080;28;21024;-72
2022/08/10 09:38:01;;;;;;;3.80;1.30;;;34.50;45.30;;;;;;5022101;28;21077;-73
2022/08/10 09:40:53;;;;;;;1.90;1.70;;;36.40;43.20;;;;;;5020820;28;20212;-73
2022/08/10 09:44:04;;;;;;;2.13;1.40;;;37.30;40.60;;;;;;5018773;28;20307;-70
2022/08/10 09:46:45;;;;;;;3.40;1.38;;;39.10;39.10;;;;;;5022420;28;20208;-71
2022/08/10 09:49:29;;;;;;;2.17;1.58;;;40.00;36.90;;;;;;5020702;28;20184;-70
2022/08/10 09:52:01;;;;;;;1.20;1.20;;;39.90;36.80;;;;;;5030887;28;20198;-71
2022/08/10 09:54:52;;;;;;;1.42;1.20;;;40.80;35.60;;;;;;5032053;28;20211;-71
2022/08/10 09:57:30;;;;;;;2.35;1.20;;;41.20;35.00;;;;;;5033000;28;20258;-72
2022/08/10 10:00:00;;;;;;;1.40;1.30;;;41.80;34.00;;;;;;5022440;28;20219;-72
2022/08/10 10:02:49;;;;;;;1.58;1.48;;;40.40;34.50;;;;;;5027977;28;20228;-71
2022/08/10 10:05:48;;;;;;;1.77;1.40;;;38.90;36.20;;;;;;5018817;28;20195;-69
2022/08/10 10:08:36;;;;;;;2.30;1.50;;;37.30;37.60;;;;;;5018543;28;20218;-70
2022/08/10 10:11:06;;;;;;;1.35;1.10;;;37.60;38.40;;;;;;5029383;28;20670;-71
2022/08/10 10:13:44;;;;;;;2.28;1.50;;;38.50;37.30;;;;;;5024360;28;20208;-67
2022/08/10 10:16:36;;;;;;;1.75;1.30;;;39.90;36.20;;;;;;5019590;28;20566;-71
2022/08/10 10:19:21;;;;;;;1.73;1.20;;;41.90;34.30;;;;;;5014919;28;20184;-71
2022/08/10 10:22:06;;;;;;;1.58;1.30;;;42.30;32.90;;;;;;5018496;28;20626;-71
2022/08/10 10:24:41;;;;;;;1.80;1.23;;;39.90;34.60;;;;;;5021626;28;20180;-71
2022/08/10 10:27:35;;;;;;;1.35;1.20;;;38.10;36.30;;;;;;5026493;28;20195;-71
2022/08/10 10:30:08;;;;;;;1.58;1.48;;;37.70;36.70;;;;;;5020870;28;20180;-70
2022/08/10 10:32:33;;;;;;;2.55;1.50;;;37.10;37.10;;;;;;5032731;28;20245;-69
2022/08/10 10:35:19;;;;;;;3.15;1.40;;;35.80;38.50;;;;;;5022351;28;20180;-71
2022/08/10 10:37:47;;;;;;;2.05;1.35;;;33.90;40.00;;;;;;5026587;28;20175;-70
2022/08/10 10:40:14;;;;;;;2.22;1.20;;;33.30;41.80;;;;;;5022920;28;20208;-66
2022/08/10 10:42:48;;;;;;;1.33;1.25;;;35.40;40.00;;;;;;5021813;28;20502;-70
2022/08/10 10:45:20;;;;;;;2.97;1.40;;;36.90;38.10;;;;;;5028607;28;20674;-69
2022/08/10 10:47:52;;;;;;;1.92;1.48;;;36.90;38.90;;;;;;5024629;28;20190;-70
2022/08/10 10:50:21;;;;;;;1.45;1.35;;;37.50;37.40;;;;;;5021952;28;20685;-71
2022/08/10 10:53:19;;;;;;;1.23;1.13;;;37.50;36.80;;;;;;5023509;28;20644;-71
2022/08/10 10:55:51;;;;;;;1.00;1.00;;;40.10;34.50;;;;;;5023403;28;20219;-70
2022/08/10 10:58:51;;;;;;;1.45;0.93;;;42.50;32.60;;;;;;5024694;28;20522;-71
2022/08/10 11:01:34;;;;;;;1.60;1.27;;;43.40;31.50;;;;;;5025732;28;20299;-70
2022/08/10 11:04:09;;;;;;;2.75;1.38;;;43.50;30.50;;;;;;5019294;28;20597;-71
2022/08/10 11:06:54;;;;;;;1.15;1.10;;;42.20;31.60;;;;;;5038189;28;20712;-71
2022/08/10 11:09:27;;;;;;;1.70;1.60;;;40.10;32.80;;;;;;5025552;28;20203;-71
2022/08/10 11:11:59;;;;;;;3.08;1.63;;;38.40;34.40;;;;;;5020791;28;20192;-71
2022/08/10 11:14:47;;;;;;;1.17;1.17;;;36.80;36.40;;;;;;5022653;28;20180;-70
2022/08/10 11:17:33;;;;;;;2.67;1.45;;;35.50;37.10;;;;;;5026350;28;20205;-67
2022/08/10 11:20:04;;;;;;;1.88;1.13;;;34.20;38.30;;;;;;5023702;28;20216;-71
2022/08/10 11:23:00;;;;;;;2.05;1.20;;;33.50;39.80;;;;;;5027250;28;20659;-71
2022/08/10 11:25:39;;;;;;;1.55;1.40;;;33.30;40.30;;;;;;5031429;28;20262;-71
2022/08/10 11:28:33;;;;;;;4.03;1.40;;;33.10;40.60;;;;;;5025671;28;20184;-69
2022/08/10 11:31:18;;;;;;;2.08;1.40;;;33.10;40.20;;;;;;5026900;28;20181;-70
2022/08/10 11:34:11;;;;;;;2.67;1.50;;;32.70;40.80;;;;;;5022681;28;20259;-71
2022/08/10 11:37:02;;;;;;;1.45;1.40;;;32.50;40.90;;;;;;5019773;28;20204;-70
2022/08/10 11:39:44;;;;;;;1.20;1.20;;;33.40;40.40;;;;;;5024922;28;20185;-70
2022/08/10 11:42:22;;;;;;;1.52;1.40;;;34.20;39.40;;;;;;5021525;28;20172;-69
2022/08/10 11:45:00;;;;;;;1.70;1.60;;;34.10;39.00;;;;;;5028008;28;20271;-71
2022/08/10 11:47:34;;;;;;;3.03;1.60;;;33.60;39.40;;;;;;5029941;28;20183;-69
2022/08/10 11:50:09;;;;;;;3.60;1.60;;;33.20;39.70;;;;;;5023536;28;20191;-71
2022/08/10 11:53:03;;;;;;;1.90;1.30;;;32.70;40.30;;;;;;5023531;28;20202;-70
2022/08/10 11:55:31;;;;;;;5.60;2.13;;;32.00;41.40;;;;;;5024911;28;20561;-71
2022/08/10 12:00:55;;;;;;;5.38;1.80;;;31.90;42.20;;;;;;5022028;28;20752;-71
2022/08/10 12:03:22;;;;;;;2.35;1.35;;;32.80;40.90;;;;;;5023377;28;20180;-70
2022/08/10 12:05:50;;;;;;;4.63;1.50;;;33.40;40.50;;;;;;5028384;28;20200;-70
2022/08/10 12:08:18;;;;;;;3.53;2.05;;;33.60;39.90;;;;;;5031947;28;20175;-70
2022/08/10 12:10:46;;;;;;;2.15;1.77;;;34.00;39.80;;;;;;5022442;28;20186;-71
2022/08/10 12:13:22;;;;;;;1.75;1.27;;;34.40;39.10;;;;;;5030768;28;20188;-70
2022/08/10 12:15:50;;;;;;;1.17;1.02;;;34.50;39.00;;;;;;5030621;28;20204;-72
2022/08/10 12:18:46;;;;;;;2.03;1.50;;;34.70;38.40;;;;;;5022196;28;20208;-68
2022/08/10 12:21:20;;;;;;;4.85;1.38;;;34.60;38.50;;;;;;5035368;28;20227;-71
2022/08/10 12:23:52;;;;;;;3.13;1.48;;;34.80;37.60;;;;;;5026808;28;20258;-69
2022/08/10 12:26:24;;;;;;;1.65;1.55;;;35.10;38.10;;;;;;5025658;28;20251;-70
2022/08/10 12:29:09;;;;;;;1.27;1.17;;;34.80;37.60;;;;;;5025709;28;20222;-71
2022/08/10 12:31:46;;;;;;;1.13;1.05;;;34.60;38.00;;;;;;5030805;28;20180;-70
2022/08/10 12:34:17;;;;;;;1.40;1.30;;;34.70;37.60;;;;;;5026522;28;20176;-69
2022/08/10 12:36:57;;;;;;;1.10;1.10;;;34.40;37.40;;;;;;5028807;28;20191;-70
2022/08/10 12:39:29;;;;;;;2.05;1.40;;;34.00;37.50;;;;;;5026016;28;20254;-74
2022/08/10 12:42:12;;;;;;;2.90;1.70;;;34.20;38.00;;;;;;5020008;28;20177;-71
2022/08/10 12:45:01;;;;;;;2.58;1.30;;;34.40;37.80;;;;;;5022661;28;20176;-71
2022/08/10 12:47:42;;;;;;;1.42;1.25;;;35.40;36.60;;;;;;5018423;28;20199;-71
2022/08/10 12:50:18;;;;;;;1.23;1.23;;;35.50;36.50;;;;;;5021680;28;20187;-71
2022/08/10 12:53:04;;;;;;;2.08;1.40;;;34.80;36.80;;;;;;5015206;28;20196;-71
2022/08/10 12:55:32;;;;;;;2.63;1.33;;;34.60;37.50;;;;;;5021155;28;20213;-68
2022/08/10 12:57:58;;;;;;;2.90;1.45;;;34.60;37.10;;;;;;5018583;28;20626;-72
2022/08/10 13:00:33;;;;;;;1.20;1.15;;;35.00;36.70;;;;;;5019903;28;20191;-69
2022/08/10 13:03:00;;;;;;;1.45;1.35;;;36.00;36.40;;;;;;5017804;28;20187;-72
2022/08/10 13:05:28;;;;;;;4.35;1.20;;;38.10;35.00;;;;;;5020231;28;20706;-72
2022/08/10 13:10:52;;;;;;;1.20;1.20;;;41.70;31.10;;;;;;5020910;28;20191;-71
2022/08/10 13:13:20;;;;;;;1.88;1.77;;;41.90;30.60;;;;;;5021163;28;20203;-71
2022/08/10 13:15:47;;;;;;;1.42;1.27;;;42.90;30.00;;;;;;5020213;28;20200;-72
2022/08/10 13:18:15;;;;;;;1.38;1.27;;;44.00;29.60;;;;;;5020120;28;20643;-72
2022/08/10 13:20:41;;;;;;;1.85;1.38;;;46.80;28.40;;;;;;5021631;28;20239;-72
2022/08/10 13:23:14;;;;;;;3.72;0.90;;;46.30;27.40;;;;;;5024234;28;20212;-72
2022/08/10 13:25:44;;;;;;;1.65;1.08;;;44.80;28.40;;;;;;5019964;28;20204;-73
2022/08/10 13:28:14;;;;;;;1.17;1.17;;;43.60;28.80;;;;;;5026978;28;20214;-72